createdAt,value
2017-08-31T00:00:09.884Z,9.83
2017-08-31T00:00:22.186Z,9.5
2017-08-31T00:01:22.935Z,9.5
2017-08-31T00:02:23.674Z,9.9
2017-08-31T00:02:37.400Z,11.13
2017-08-31T00:03:24.409Z,10.2
2017-08-31T00:04:25.200Z,10.0
2017-08-31T00:05:06.427Z,9.93
2017-08-31T00:05:25.954Z,9.9
2017-08-31T00:06:26.773Z,10.2
2017-08-31T00:07:27.482Z,9.6
2017-08-31T00:07:33.935Z,8.63
2017-08-31T00:08:28.206Z,10.0
2017-08-31T00:09:28.947Z,9.8
2017-08-31T00:10:02.993Z,9.30
2017-08-31T00:10:29.754Z,10.0
2017-08-31T00:11:30.450Z,9.9
2017-08-31T00:12:30.494Z,9.00
2017-08-31T00:12:31.304Z,9.8
2017-08-31T00:13:32.045Z,10.0
2017-08-31T00:14:32.701Z,10.5
2017-08-31T00:14:58.771Z,9.27
2017-08-31T00:15:33.441Z,10.0
2017-08-31T00:16:34.220Z,10.3
2017-08-31T00:17:26.299Z,9.10
2017-08-31T00:17:35.211Z,9.5
2017-08-31T00:18:35.858Z,10.4
2017-08-31T00:19:36.618Z,10.3
2017-08-31T00:19:53.815Z,9.50
2017-08-31T00:20:37.422Z,9.9
2017-08-31T00:21:38.139Z,9.9
2017-08-31T00:22:21.354Z,9.47
2017-08-31T00:22:38.887Z,9.6
2017-08-31T00:23:39.616Z,10.1
2017-08-31T00:24:40.411Z,9.8
2017-08-31T00:24:48.870Z,8.63
2017-08-31T00:25:41.126Z,10.2
2017-08-31T00:26:41.928Z,10.0
2017-08-31T00:27:16.395Z,9.77
2017-08-31T00:27:42.609Z,10.3
2017-08-31T00:28:43.419Z,9.5
2017-08-31T00:29:44.089Z,9.5
2017-08-31T00:29:44.289Z,8.70
2017-08-31T00:30:44.845Z,9.4
2017-08-31T00:31:45.652Z,9.4
2017-08-31T00:32:11.812Z,9.10
2017-08-31T00:32:46.330Z,9.4
2017-08-31T00:33:47.037Z,9.4
2017-08-31T00:34:39.319Z,8.27
2017-08-31T00:34:47.780Z,9.1
2017-08-31T00:35:48.500Z,9.4
2017-08-31T00:36:49.207Z,9.5
2017-08-31T00:37:08.200Z,8.70
2017-08-31T00:37:49.962Z,9.2
2017-08-31T00:38:50.719Z,9.1
2017-08-31T00:39:35.724Z,9.03
2017-08-31T00:39:51.502Z,9.8
2017-08-31T00:40:52.204Z,9.2
2017-08-31T00:41:52.994Z,9.1
2017-08-31T00:42:04.407Z,8.60
2017-08-31T00:42:53.642Z,8.4
2017-08-31T00:43:54.423Z,8.9
2017-08-31T00:44:31.901Z,7.13
2017-08-31T00:44:55.167Z,8.6
2017-08-31T00:45:55.955Z,9.0
2017-08-31T00:46:56.680Z,8.9
2017-08-31T00:46:59.405Z,9.03
2017-08-31T00:47:57.401Z,8.9
2017-08-31T00:48:58.120Z,8.9
2017-08-31T00:49:27.315Z,7.50
2017-08-31T00:49:58.938Z,8.4
2017-08-31T00:50:59.730Z,9.1
2017-08-31T00:51:56.162Z,8.07
2017-08-31T00:52:00.626Z,9.6
2017-08-31T00:53:01.368Z,8.8
2017-08-31T00:54:02.116Z,8.7
2017-08-31T00:54:23.691Z,7.53
2017-08-31T00:55:02.864Z,8.6
2017-08-31T00:56:03.548Z,8.5
2017-08-31T00:56:51.591Z,8.80
2017-08-31T00:57:04.261Z,8.7
2017-08-31T00:58:04.986Z,8.2
2017-08-31T00:59:05.773Z,8.5
2017-08-31T00:59:19.116Z,7.87
2017-08-31T01:00:06.572Z,9.3
2017-08-31T01:01:07.289Z,8.7
2017-08-31T01:01:46.628Z,8.40
2017-08-31T01:02:08.258Z,8.4
2017-08-31T01:03:08.950Z,8.8
2017-08-31T01:04:09.681Z,8.7
2017-08-31T01:04:14.910Z,8.07
2017-08-31T01:05:10.394Z,8.5
2017-08-31T01:06:11.116Z,8.6
2017-08-31T01:06:42.435Z,7.60
2017-08-31T01:07:11.869Z,8.2
2017-08-31T01:08:12.634Z,8.4
2017-08-31T01:09:09.958Z,7.30
2017-08-31T01:09:13.370Z,8.6
2017-08-31T01:10:14.128Z,8.2
2017-08-31T01:11:14.850Z,7.9
2017-08-31T01:11:37.462Z,7.77
2017-08-31T01:12:15.796Z,8.2
2017-08-31T01:13:16.608Z,8.1
2017-08-31T01:14:04.959Z,7.40
2017-08-31T01:14:17.331Z,7.9
2017-08-31T01:15:18.051Z,7.8
2017-08-31T01:16:18.862Z,8.0
2017-08-31T01:16:32.473Z,7.10
2017-08-31T01:17:19.591Z,8.2
2017-08-31T01:18:20.326Z,8.7
2017-08-31T01:19:00.747Z,7.80
2017-08-31T01:19:21.100Z,8.3
2017-08-31T01:20:21.814Z,8.4
2017-08-31T01:21:22.662Z,9.3
2017-08-31T01:21:29.031Z,7.33
2017-08-31T01:22:23.432Z,8.0
2017-08-31T01:23:24.241Z,7.9
2017-08-31T01:23:56.543Z,8.17
2017-08-31T01:24:25.019Z,8.0
2017-08-31T01:25:25.815Z,8.0
2017-08-31T01:26:24.831Z,7.10
2017-08-31T01:26:26.529Z,8.6
2017-08-31T01:27:27.287Z,8.4
2017-08-31T01:28:28.123Z,8.5
2017-08-31T01:28:52.342Z,7.90
2017-08-31T01:29:28.875Z,8.7
2017-08-31T01:30:29.590Z,8.5
2017-08-31T01:31:20.623Z,7.00
2017-08-31T01:31:30.361Z,8.6
2017-08-31T01:32:31.091Z,9.2
2017-08-31T01:33:31.862Z,9.3
2017-08-31T01:33:48.122Z,8.00
2017-08-31T01:34:32.551Z,8.5
2017-08-31T01:35:33.238Z,8.5
2017-08-31T01:36:15.639Z,6.60
2017-08-31T01:36:34.042Z,9.2
2017-08-31T01:37:34.799Z,8.2
2017-08-31T01:38:35.625Z,9.1
2017-08-31T01:38:43.142Z,7.50
2017-08-31T01:39:36.370Z,9.0
2017-08-31T01:40:37.035Z,7.9
2017-08-31T01:41:10.671Z,6.87
2017-08-31T01:41:37.794Z,8.6
2017-08-31T01:42:38.547Z,8.7
2017-08-31T01:43:38.191Z,6.50
2017-08-31T01:43:39.262Z,8.5
2017-08-31T01:44:40.032Z,8.5
2017-08-31T01:45:40.836Z,8.4
2017-08-31T01:46:05.710Z,7.60
2017-08-31T01:46:41.575Z,8.8
2017-08-31T01:47:42.330Z,9.0
2017-08-31T01:48:33.239Z,7.93
2017-08-31T01:48:43.053Z,8.8
2017-08-31T01:49:43.781Z,7.9
2017-08-31T01:50:44.497Z,8.6
2017-08-31T01:51:01.890Z,6.80
2017-08-31T01:51:45.321Z,8.6
2017-08-31T01:52:46.023Z,8.3
2017-08-31T01:53:29.803Z,7.20
2017-08-31T01:53:46.853Z,8.2
2017-08-31T01:54:47.704Z,7.7
2017-08-31T01:55:48.436Z,8.2
2017-08-31T01:55:57.311Z,7.47
2017-08-31T01:56:49.180Z,8.0
2017-08-31T01:57:49.969Z,8.5
2017-08-31T01:58:25.218Z,6.63
2017-08-31T01:58:50.753Z,8.4
2017-08-31T01:59:51.493Z,7.6
2017-08-31T02:00:52.210Z,8.6
2017-08-31T02:00:52.722Z,6.83
2017-08-31T02:03:08.520Z,7.7
2017-08-31T02:03:20.264Z,6.90
2017-08-31T02:04:09.335Z,8.3
2017-08-31T02:05:10.000Z,8.2
2017-08-31T02:05:47.771Z,6.90
2017-08-31T02:06:10.761Z,8.2
2017-08-31T02:07:11.508Z,8.3
2017-08-31T02:08:12.320Z,8.7
2017-08-31T02:08:15.291Z,6.83
2017-08-31T02:09:13.045Z,7.6
2017-08-31T02:10:13.882Z,8.3
2017-08-31T02:10:42.786Z,6.87
2017-08-31T02:11:14.572Z,8.0
2017-08-31T02:12:15.345Z,7.9
2017-08-31T02:13:10.331Z,6.90
2017-08-31T02:13:16.075Z,8.0
2017-08-31T02:14:16.834Z,8.2
2017-08-31T02:15:17.555Z,7.2
2017-08-31T02:15:38.235Z,6.50
2017-08-31T02:16:18.289Z,8.6
2017-08-31T02:17:19.018Z,7.3
2017-08-31T02:18:05.735Z,8.07
2017-08-31T02:18:19.772Z,7.7
2017-08-31T02:19:20.529Z,7.3
2017-08-31T02:20:21.199Z,7.7
2017-08-31T02:20:33.250Z,8.70
2017-08-31T02:21:21.930Z,7.7
2017-08-31T02:22:22.657Z,7.8
2017-08-31T02:23:00.746Z,8.77
2017-08-31T02:23:23.398Z,7.9
2017-08-31T02:24:24.189Z,7.1
2017-08-31T02:25:24.948Z,7.5
2017-08-31T02:25:29.035Z,6.83
2017-08-31T02:26:25.699Z,7.6
2017-08-31T02:27:26.468Z,7.1
2017-08-31T02:27:56.543Z,8.17
2017-08-31T02:28:27.168Z,7.6
2017-08-31T02:29:27.868Z,7.7
2017-08-31T02:30:24.080Z,7.83
2017-08-31T02:30:29.350Z,7.6
2017-08-31T02:31:30.030Z,7.5
2017-08-31T02:32:30.738Z,7.6
2017-08-31T02:32:53.003Z,9.90
2017-08-31T02:33:31.512Z,7.5
2017-08-31T02:34:32.258Z,7.4
2017-08-31T02:35:20.527Z,8.10
2017-08-31T02:35:32.992Z,7.1
2017-08-31T02:36:33.783Z,7.5
2017-08-31T02:37:34.480Z,7.5
2017-08-31T02:37:48.027Z,6.97
2017-08-31T02:38:35.174Z,7.0
2017-08-31T02:39:35.928Z,6.9
2017-08-31T02:40:15.955Z,6.03
2017-08-31T02:40:36.716Z,6.6
2017-08-31T02:41:37.434Z,5.9
2017-08-31T02:42:38.165Z,6.6
2017-08-31T02:42:43.842Z,7.83
2017-08-31T02:43:38.901Z,6.5
2017-08-31T02:44:39.614Z,6.7
2017-08-31T02:45:11.338Z,7.20
2017-08-31T02:45:40.401Z,6.5
2017-08-31T02:46:41.071Z,5.8
2017-08-31T02:47:38.862Z,6.30
2017-08-31T02:47:41.816Z,6.6
2017-08-31T02:48:42.559Z,6.0
2017-08-31T02:49:43.234Z,5.9
2017-08-31T02:50:06.751Z,6.80
2017-08-31T02:50:44.023Z,6.3
2017-08-31T02:51:44.765Z,6.2
2017-08-31T02:52:34.286Z,7.10
2017-08-31T02:52:45.502Z,6.4
2017-08-31T02:53:46.300Z,5.9
2017-08-31T02:54:47.017Z,5.6
2017-08-31T02:55:02.547Z,7.00
2017-08-31T02:55:47.728Z,6.2
2017-08-31T02:56:48.430Z,6.2
2017-08-31T02:57:30.070Z,6.50
2017-08-31T02:57:49.153Z,5.7
2017-08-31T02:58:49.878Z,5.5
2017-08-31T02:59:50.626Z,5.3
2017-08-31T02:59:57.562Z,6.57
2017-08-31T03:00:51.329Z,5.4
2017-08-31T03:01:52.030Z,5.1
2017-08-31T03:02:25.081Z,6.70
2017-08-31T03:02:52.759Z,5.2
2017-08-31T03:03:53.516Z,5.7
2017-08-31T03:04:53.926Z,6.43
2017-08-31T03:04:54.243Z,5.6
2017-08-31T03:05:55.037Z,5.5
2017-08-31T03:06:55.796Z,5.4
2017-08-31T03:07:21.846Z,7.03
2017-08-31T03:07:56.504Z,5.5
2017-08-31T03:08:57.241Z,5.7
2017-08-31T03:09:49.359Z,6.67
2017-08-31T03:09:57.993Z,5.2
2017-08-31T03:10:58.744Z,5.2
2017-08-31T03:11:59.512Z,5.4
2017-08-31T03:12:16.871Z,6.53
2017-08-31T03:13:00.242Z,5.1
2017-08-31T03:14:01.068Z,5.4
2017-08-31T03:14:44.395Z,6.97
2017-08-31T03:15:01.793Z,4.9
2017-08-31T03:16:02.467Z,5.4
2017-08-31T03:17:03.219Z,4.9
2017-08-31T03:17:12.654Z,6.33
2017-08-31T03:18:03.922Z,5.0
2017-08-31T03:19:04.669Z,5.4
2017-08-31T03:19:40.175Z,7.17
2017-08-31T03:20:05.365Z,4.9
2017-08-31T03:21:06.201Z,5.0
2017-08-31T03:22:06.857Z,4.9
2017-08-31T03:22:07.711Z,6.90
2017-08-31T03:23:07.627Z,4.7
2017-08-31T03:24:08.370Z,5.0
2017-08-31T03:24:35.231Z,7.07
2017-08-31T03:25:09.244Z,4.5
2017-08-31T03:26:09.966Z,5.0
2017-08-31T03:27:02.733Z,8.13
2017-08-31T03:27:10.697Z,4.8
2017-08-31T03:28:11.423Z,5.2
2017-08-31T03:29:12.161Z,4.8
2017-08-31T03:29:30.254Z,6.80
2017-08-31T03:30:12.920Z,5.4
2017-08-31T03:31:13.619Z,5.0
2017-08-31T03:31:57.760Z,6.93
2017-08-31T03:32:14.363Z,4.6
2017-08-31T03:33:15.142Z,4.7
2017-08-31T03:34:15.874Z,5.1
2017-08-31T03:34:26.795Z,7.10
2017-08-31T03:35:16.640Z,5.0
2017-08-31T03:36:17.343Z,5.1
2017-08-31T03:36:55.070Z,6.13
2017-08-31T03:37:18.103Z,4.5
2017-08-31T03:38:18.837Z,4.4
2017-08-31T03:39:19.591Z,4.9
2017-08-31T03:39:22.598Z,7.47
2017-08-31T03:40:20.365Z,4.4
2017-08-31T03:41:21.081Z,4.5
2017-08-31T03:41:51.610Z,6.43
2017-08-31T03:42:21.865Z,4.5
2017-08-31T03:43:22.554Z,4.7
2017-08-31T03:44:19.118Z,6.60
2017-08-31T03:44:23.305Z,5.1
2017-08-31T03:45:24.024Z,5.1
2017-08-31T03:46:24.751Z,4.8
2017-08-31T03:46:46.659Z,8.73
2017-08-31T03:47:25.484Z,4.3
2017-08-31T03:48:26.315Z,4.8
2017-08-31T03:49:14.559Z,8.60
2017-08-31T03:49:26.975Z,4.7
2017-08-31T03:50:27.743Z,4.6
2017-08-31T03:51:28.478Z,4.9
2017-08-31T03:51:42.856Z,9.30
2017-08-31T03:52:29.240Z,4.7
2017-08-31T03:53:30.030Z,4.3
2017-08-31T03:54:10.360Z,7.83
2017-08-31T03:54:30.739Z,4.4
2017-08-31T03:55:31.501Z,4.8
2017-08-31T03:56:32.240Z,5.1
2017-08-31T03:56:37.879Z,9.27
2017-08-31T03:57:32.980Z,4.5
2017-08-31T03:58:33.659Z,4.9
2017-08-31T03:59:05.398Z,7.10
2017-08-31T03:59:34.539Z,5.0
2017-08-31T04:00:35.638Z,4.6
2017-08-31T04:01:33.691Z,7.50
2017-08-31T04:01:36.389Z,4.7
2017-08-31T04:02:37.158Z,5.9
2017-08-31T04:03:38.193Z,4.9
2017-08-31T04:04:01.202Z,8.23
2017-08-31T04:04:38.892Z,5.3
2017-08-31T04:05:39.737Z,4.8
2017-08-31T04:06:28.772Z,7.47
2017-08-31T04:06:40.462Z,5.3
2017-08-31T04:07:41.221Z,5.1
2017-08-31T04:08:41.917Z,4.5
2017-08-31T04:08:57.043Z,7.90
2017-08-31T04:09:42.637Z,4.7
2017-08-31T04:10:43.473Z,4.5
2017-08-31T04:11:24.543Z,6.77
2017-08-31T04:11:44.255Z,5.0
2017-08-31T04:12:44.974Z,5.5
2017-08-31T04:13:45.669Z,5.0
2017-08-31T04:13:53.199Z,9.10
2017-08-31T04:14:46.385Z,5.2
2017-08-31T04:15:47.295Z,5.4
2017-08-31T04:16:21.463Z,8.93
2017-08-31T04:16:48.172Z,4.9
2017-08-31T04:17:48.915Z,5.0
2017-08-31T04:18:49.569Z,5.0
2017-08-31T04:18:49.747Z,8.57
2017-08-31T04:19:50.305Z,5.6
2017-08-31T04:20:51.140Z,5.0
2017-08-31T04:21:17.240Z,8.50
2017-08-31T04:21:51.852Z,5.2
2017-08-31T04:22:52.619Z,5.7
2017-08-31T04:23:45.167Z,7.47
2017-08-31T04:23:53.343Z,4.8
2017-08-31T04:24:54.090Z,4.9
2017-08-31T04:25:54.892Z,5.8
2017-08-31T04:26:12.667Z,7.60
2017-08-31T04:26:55.619Z,5.8
2017-08-31T04:27:56.359Z,6.3
2017-08-31T04:28:40.188Z,7.53
2017-08-31T04:28:57.057Z,6.2
2017-08-31T04:29:57.849Z,6.1
2017-08-31T04:30:58.607Z,6.0
2017-08-31T04:31:07.702Z,7.63
2017-08-31T04:31:59.352Z,5.9
2017-08-31T04:33:00.091Z,6.1
2017-08-31T04:33:35.239Z,8.23
2017-08-31T04:34:00.915Z,6.4
2017-08-31T04:35:01.608Z,6.4
2017-08-31T04:36:02.392Z,6.3
2017-08-31T04:36:02.731Z,7.10
2017-08-31T04:37:03.131Z,6.4
2017-08-31T04:38:03.866Z,6.0
2017-08-31T04:38:31.373Z,7.93
2017-08-31T04:39:04.618Z,6.6
2017-08-31T04:40:05.356Z,6.1
2017-08-31T04:40:58.899Z,7.80
2017-08-31T04:41:06.150Z,6.1
2017-08-31T04:42:07.003Z,6.5
2017-08-31T04:43:07.735Z,6.2
2017-08-31T04:43:26.403Z,8.37
2017-08-31T04:44:08.420Z,6.3
2017-08-31T04:45:09.255Z,6.4
2017-08-31T04:45:53.915Z,7.07
2017-08-31T04:46:10.020Z,6.3
2017-08-31T04:47:10.768Z,6.2
2017-08-31T04:48:11.625Z,6.9
2017-08-31T04:48:21.416Z,7.77
2017-08-31T04:49:12.321Z,6.6
2017-08-31T04:50:13.056Z,5.5
2017-08-31T04:50:49.746Z,7.83
2017-08-31T04:51:13.808Z,6.3
2017-08-31T04:52:14.623Z,6.7
2017-08-31T04:53:15.374Z,6.0
2017-08-31T04:53:17.240Z,7.70
2017-08-31T04:54:16.344Z,6.2
2017-08-31T04:55:17.120Z,6.1
2017-08-31T04:55:45.159Z,8.30
2017-08-31T04:56:17.837Z,5.8
2017-08-31T04:57:18.646Z,5.9
2017-08-31T04:58:12.650Z,7.13
2017-08-31T04:58:19.432Z,6.0
2017-08-31T04:59:20.629Z,5.9
2017-08-31T05:00:21.299Z,7.0
2017-08-31T05:00:40.173Z,7.23
2017-08-31T05:01:22.297Z,5.7
2017-08-31T05:02:22.954Z,6.5
2017-08-31T05:03:08.451Z,8.50
2017-08-31T05:03:23.745Z,5.2
2017-08-31T05:04:24.408Z,5.2
2017-08-31T05:05:25.311Z,5.4
2017-08-31T05:05:36.767Z,7.27
2017-08-31T05:06:26.137Z,5.0
2017-08-31T05:07:27.194Z,5.6
2017-08-31T05:08:05.631Z,8.17
2017-08-31T05:08:27.835Z,5.0
2017-08-31T05:09:28.581Z,5.2
2017-08-31T05:10:29.411Z,5.1
2017-08-31T05:10:33.916Z,9.40
2017-08-31T05:11:30.462Z,5.2
2017-08-31T05:12:31.237Z,4.7
2017-08-31T05:13:01.459Z,7.17
2017-08-31T05:13:32.013Z,4.6
2017-08-31T05:14:32.993Z,4.8
2017-08-31T05:15:28.978Z,9.60
2017-08-31T05:15:34.120Z,4.9
2017-08-31T05:16:35.343Z,4.7
2017-08-31T05:17:36.119Z,4.5
2017-08-31T05:17:57.635Z,8.60
2017-08-31T05:18:36.810Z,5.2
2017-08-31T05:19:37.780Z,5.0
2017-08-31T05:20:25.904Z,7.63
2017-08-31T05:20:38.555Z,4.7
2017-08-31T05:21:39.343Z,5.0
2017-08-31T05:22:40.129Z,4.7
2017-08-31T05:22:53.823Z,8.13
2017-08-31T05:23:40.887Z,5.2
2017-08-31T05:24:41.604Z,4.7
2017-08-31T05:25:21.330Z,8.40
2017-08-31T05:25:42.393Z,4.5
2017-08-31T05:26:43.117Z,4.7
2017-08-31T05:27:43.856Z,5.4
2017-08-31T05:27:48.856Z,7.90
2017-08-31T05:28:44.569Z,4.7
2017-08-31T05:29:45.323Z,4.8
2017-08-31T05:30:16.376Z,8.73
2017-08-31T05:30:46.115Z,4.6
2017-08-31T05:31:46.855Z,5.1
2017-08-31T05:32:45.246Z,8.90
2017-08-31T05:32:47.555Z,4.5
2017-08-31T05:33:48.311Z,4.8
2017-08-31T05:34:49.094Z,4.2
2017-08-31T05:35:13.138Z,8.70
2017-08-31T05:35:49.890Z,4.7
2017-08-31T05:36:50.607Z,4.9
2017-08-31T05:37:41.439Z,8.30
2017-08-31T05:37:51.330Z,4.8
2017-08-31T05:38:52.067Z,4.7
2017-08-31T05:39:52.821Z,4.6
2017-08-31T05:40:09.344Z,8.27
2017-08-31T05:40:53.557Z,4.5
2017-08-31T05:41:54.297Z,4.4
2017-08-31T05:42:37.641Z,8.93
2017-08-31T05:42:55.031Z,4.6
2017-08-31T05:43:55.729Z,5.0
2017-08-31T05:44:56.448Z,4.6
2017-08-31T05:45:05.928Z,8.13
2017-08-31T05:45:57.451Z,4.3
2017-08-31T05:46:58.362Z,4.6
2017-08-31T05:47:33.432Z,9.20
2017-08-31T05:47:59.159Z,4.5
2017-08-31T05:48:59.939Z,4.2
2017-08-31T05:50:00.959Z,8.57
2017-08-31T05:50:00.985Z,4.5
2017-08-31T05:51:01.721Z,4.2
2017-08-31T05:52:02.574Z,4.8
2017-08-31T05:52:28.466Z,7.07
2017-08-31T05:53:03.303Z,4.4
2017-08-31T05:54:04.118Z,4.2
2017-08-31T05:54:57.497Z,8.57
2017-08-31T05:55:04.793Z,3.8
2017-08-31T05:56:05.605Z,4.0
2017-08-31T05:57:06.361Z,3.7
2017-08-31T05:57:25.002Z,8.20
2017-08-31T05:58:07.141Z,3.9
2017-08-31T05:59:08.251Z,4.1
2017-08-31T05:59:53.301Z,9.23
2017-08-31T06:00:08.918Z,3.8
2017-08-31T06:01:09.978Z,3.5
2017-08-31T06:02:10.789Z,3.8
2017-08-31T06:02:20.835Z,8.80
2017-08-31T06:03:11.463Z,3.5
2017-08-31T06:04:12.205Z,4.2
2017-08-31T06:04:48.372Z,9.40
2017-08-31T06:05:13.001Z,3.8
2017-08-31T06:06:13.810Z,3.9
2017-08-31T06:07:14.595Z,3.6
2017-08-31T06:07:15.878Z,8.97
2017-08-31T06:08:15.531Z,3.5
2017-08-31T06:09:16.212Z,3.6
2017-08-31T06:09:43.403Z,7.90
2017-08-31T06:10:16.939Z,3.8
2017-08-31T06:11:17.780Z,3.5
2017-08-31T06:12:10.895Z,6.93
2017-08-31T06:12:18.699Z,3.7
2017-08-31T06:13:19.524Z,4.1
2017-08-31T06:14:20.211Z,4.1
2017-08-31T06:14:39.627Z,7.80
2017-08-31T06:15:21.486Z,3.9
2017-08-31T06:16:22.212Z,3.5
2017-08-31T06:17:07.143Z,8.10
2017-08-31T06:17:22.972Z,3.6
2017-08-31T06:18:23.820Z,3.8
2017-08-31T06:19:24.689Z,4.0
2017-08-31T06:19:34.644Z,7.20
2017-08-31T06:20:25.498Z,3.9
2017-08-31T06:21:26.284Z,3.7
2017-08-31T06:22:03.523Z,7.33
2017-08-31T06:22:27.067Z,3.6
2017-08-31T06:23:28.321Z,3.8
2017-08-31T06:24:28.990Z,4.2
2017-08-31T06:24:31.022Z,8.37
2017-08-31T06:25:29.715Z,3.7
2017-08-31T06:26:30.598Z,4.3
2017-08-31T06:26:59.332Z,9.50
2017-08-31T06:27:31.695Z,3.9
2017-08-31T06:28:32.789Z,3.7
2017-08-31T06:29:27.226Z,8.13
2017-08-31T06:29:33.507Z,3.6
2017-08-31T06:30:34.180Z,3.8
2017-08-31T06:31:34.991Z,3.8
2017-08-31T06:31:55.510Z,8.10
2017-08-31T06:32:35.700Z,4.3
2017-08-31T06:33:36.447Z,3.9
2017-08-31T06:34:24.154Z,7.90
2017-08-31T06:34:37.222Z,4.6
2017-08-31T06:35:37.972Z,3.9
2017-08-31T06:36:38.833Z,3.7
2017-08-31T06:36:51.678Z,6.87
2017-08-31T06:37:40.407Z,3.8
2017-08-31T06:38:41.666Z,4.0
2017-08-31T06:39:21.230Z,6.53
2017-08-31T06:39:42.511Z,3.7
2017-08-31T06:40:43.349Z,3.9
2017-08-31T06:41:44.447Z,4.1
2017-08-31T06:41:49.155Z,8.27
2017-08-31T06:42:45.148Z,3.8
2017-08-31T06:43:45.981Z,3.6
2017-08-31T06:44:16.655Z,7.70
2017-08-31T06:44:46.647Z,4.0
2017-08-31T06:45:47.698Z,3.9
2017-08-31T06:46:44.550Z,7.47
2017-08-31T06:46:48.514Z,3.8
2017-08-31T06:47:49.254Z,3.9
2017-08-31T06:48:50.248Z,4.0
2017-08-31T06:49:12.071Z,6.77
2017-08-31T06:49:50.979Z,3.7
2017-08-31T06:50:51.719Z,3.9
2017-08-31T06:51:39.596Z,7.10
2017-08-31T06:51:53.017Z,3.8
2017-08-31T06:52:53.759Z,4.1
2017-08-31T06:53:54.900Z,4.0
2017-08-31T06:54:07.883Z,6.70
2017-08-31T06:54:55.704Z,4.1
2017-08-31T06:55:56.421Z,4.0
2017-08-31T06:56:35.399Z,7.03
2017-08-31T06:56:57.154Z,3.6
2017-08-31T06:57:57.995Z,3.9
2017-08-31T06:59:02.927Z,7.40
2017-08-31T07:00:01.157Z,3.7
2017-08-31T07:01:01.974Z,3.6
2017-08-31T07:01:30.431Z,6.40
2017-08-31T07:02:02.654Z,3.7
2017-08-31T07:03:03.556Z,3.8
2017-08-31T07:03:57.958Z,6.97
2017-08-31T07:04:04.401Z,3.7
2017-08-31T07:05:05.565Z,3.8
2017-08-31T07:06:06.261Z,3.7
2017-08-31T07:06:25.475Z,6.33
2017-08-31T07:07:06.976Z,3.8
2017-08-31T07:08:52.992Z,5.90
2017-08-31T07:09:23.475Z,3.6
2017-08-31T07:10:24.271Z,3.8
2017-08-31T07:11:20.524Z,7.00
2017-08-31T07:11:25.235Z,3.9
2017-08-31T07:12:25.978Z,4.1
2017-08-31T07:13:26.796Z,4.0
2017-08-31T07:13:48.800Z,6.50
2017-08-31T07:14:27.582Z,3.6
2017-08-31T07:15:28.378Z,3.9
2017-08-31T07:16:16.706Z,5.97
2017-08-31T07:16:29.135Z,3.8
2017-08-31T07:17:29.848Z,3.3
2017-08-31T07:18:30.568Z,3.7
2017-08-31T07:18:44.971Z,6.30
2017-08-31T07:19:31.786Z,3.5
2017-08-31T07:20:32.877Z,3.9
2017-08-31T07:21:12.888Z,6.07
2017-08-31T07:21:33.536Z,4.2
2017-08-31T07:22:34.340Z,3.1
2017-08-31T07:23:35.283Z,3.5
2017-08-31T07:23:41.168Z,5.77
2017-08-31T07:24:36.056Z,3.9
2017-08-31T07:25:36.756Z,3.2
2017-08-31T07:26:08.691Z,5.50
2017-08-31T07:26:37.537Z,3.8
2017-08-31T07:27:38.451Z,3.7
2017-08-31T07:28:36.199Z,6.00
2017-08-31T07:28:39.174Z,3.8
2017-08-31T07:29:39.953Z,3.3
2017-08-31T07:30:40.734Z,3.1
2017-08-31T07:31:03.723Z,4.80
2017-08-31T07:31:41.393Z,3.4
2017-08-31T07:32:42.157Z,3.0
2017-08-31T07:33:31.219Z,5.20
2017-08-31T07:33:43.105Z,3.5
2017-08-31T07:34:43.826Z,3.1
2017-08-31T07:35:44.650Z,3.6
2017-08-31T07:35:58.722Z,5.00
2017-08-31T07:36:45.504Z,3.3
2017-08-31T07:37:46.652Z,3.7
2017-08-31T07:38:26.243Z,4.57
2017-08-31T07:38:47.328Z,3.4
2017-08-31T07:39:48.090Z,3.5
2017-08-31T07:40:48.813Z,3.0
2017-08-31T07:40:54.514Z,5.00
2017-08-31T07:41:49.591Z,3.1
2017-08-31T07:42:50.390Z,3.4
2017-08-31T07:43:22.040Z,4.70
2017-08-31T07:43:51.188Z,3.3
2017-08-31T07:44:51.930Z,3.1
2017-08-31T07:45:49.530Z,5.03
2017-08-31T07:45:52.839Z,3.2
2017-08-31T07:46:53.648Z,3.3
2017-08-31T07:47:54.475Z,3.2
2017-08-31T07:48:17.056Z,5.07
2017-08-31T07:48:55.203Z,3.5
2017-08-31T07:49:56.308Z,3.1
2017-08-31T07:50:45.319Z,5.03
2017-08-31T07:50:57.103Z,3.1
2017-08-31T07:51:57.873Z,3.3
2017-08-31T07:52:58.617Z,3.0
2017-08-31T07:53:12.858Z,4.40
2017-08-31T07:53:59.496Z,3.2
2017-08-31T07:55:00.209Z,3.3
2017-08-31T07:55:40.380Z,4.27
2017-08-31T07:56:01.022Z,3.7
2017-08-31T07:57:01.693Z,3.3
2017-08-31T07:58:02.433Z,3.3
2017-08-31T07:58:07.906Z,4.30
2017-08-31T07:59:03.153Z,2.8
2017-08-31T08:00:03.974Z,3.7
2017-08-31T08:00:35.408Z,5.10
2017-08-31T08:01:05.073Z,3.3
2017-08-31T08:02:05.825Z,3.4
2017-08-31T08:03:02.934Z,4.27
2017-08-31T08:03:06.528Z,3.4
2017-08-31T08:04:07.269Z,3.6
2017-08-31T08:05:08.725Z,3.5
2017-08-31T08:05:30.827Z,3.90
2017-08-31T08:06:09.418Z,3.2
2017-08-31T08:07:10.169Z,3.6
2017-08-31T08:07:58.351Z,3.63
2017-08-31T08:08:10.894Z,3.0
2017-08-31T08:09:12.023Z,3.4
2017-08-31T08:10:12.703Z,4.0
2017-08-31T08:10:26.251Z,3.47
2017-08-31T08:11:13.946Z,3.0
2017-08-31T08:12:14.637Z,3.3
2017-08-31T08:12:53.791Z,2.93
2017-08-31T08:13:15.470Z,3.3
2017-08-31T08:15:21.310Z,4.30
2017-08-31T08:15:32.709Z,2.8
2017-08-31T08:16:33.488Z,3.3
2017-08-31T08:17:34.233Z,2.9
2017-08-31T08:17:48.811Z,4.73
2017-08-31T08:18:34.990Z,3.3
2017-08-31T08:19:35.855Z,3.0
2017-08-31T08:20:16.728Z,3.60
2017-08-31T08:20:37.211Z,2.8
2017-08-31T08:21:37.867Z,3.6
2017-08-31T08:22:38.780Z,3.1
2017-08-31T08:22:45.359Z,4.40
2017-08-31T08:23:39.708Z,3.2
2017-08-31T08:24:40.971Z,3.3
2017-08-31T08:25:14.222Z,4.50
2017-08-31T08:25:41.985Z,3.2
2017-08-31T08:26:43.565Z,3.1
2017-08-31T08:27:41.734Z,3.80
2017-08-31T08:27:44.264Z,4.1
2017-08-31T08:28:45.041Z,3.1
2017-08-31T08:29:45.794Z,3.0
2017-08-31T08:30:10.023Z,4.07
2017-08-31T08:30:47.280Z,3.3
2017-08-31T08:31:47.954Z,3.3
2017-08-31T08:32:37.530Z,4.17
2017-08-31T08:32:48.677Z,3.4
2017-08-31T08:34:52.395Z,3.3
2017-08-31T08:35:05.435Z,4.60
2017-08-31T08:35:53.093Z,3.0
2017-08-31T08:36:53.838Z,3.2
2017-08-31T08:37:32.930Z,4.57
2017-08-31T08:37:54.581Z,2.9
2017-08-31T08:38:55.701Z,3.1
2017-08-31T08:39:56.480Z,3.3
2017-08-31T08:40:00.460Z,4.40
2017-08-31T08:40:57.265Z,3.5
2017-08-31T08:41:58.839Z,3.1
2017-08-31T08:42:27.959Z,3.73
2017-08-31T08:43:00.100Z,3.4
2017-08-31T08:44:00.866Z,3.3
2017-08-31T08:44:55.463Z,4.37
2017-08-31T08:45:01.803Z,3.0
2017-08-31T08:46:03.073Z,3.9
2017-08-31T08:47:04.018Z,3.5
2017-08-31T08:47:22.995Z,3.70
2017-08-31T08:48:04.781Z,3.2
2017-08-31T08:49:06.717Z,3.8
2017-08-31T08:49:50.482Z,3.60
2017-08-31T08:50:08.055Z,3.6
2017-08-31T08:51:08.825Z,3.1
2017-08-31T08:52:09.527Z,3.3
2017-08-31T08:52:18.774Z,4.30
2017-08-31T08:53:10.305Z,3.0
2017-08-31T08:54:11.120Z,3.1
2017-08-31T08:54:47.033Z,4.03
2017-08-31T08:55:11.875Z,3.4
2017-08-31T08:56:13.003Z,3.3
2017-08-31T08:57:13.999Z,3.6
2017-08-31T08:57:14.543Z,4.70
2017-08-31T08:58:14.736Z,3.6
2017-08-31T08:59:15.549Z,3.3
2017-08-31T08:59:42.055Z,4.57
2017-08-31T09:00:16.308Z,3.7
2017-08-31T09:01:17.274Z,4.0
2017-08-31T09:02:09.564Z,3.80
2017-08-31T09:02:18.082Z,4.0
2017-08-31T09:03:18.807Z,3.7
2017-08-31T09:04:19.773Z,3.8
2017-08-31T09:04:37.071Z,4.20
2017-08-31T09:05:20.889Z,4.0
2017-08-31T09:06:21.695Z,3.8
2017-08-31T09:07:04.595Z,4.70
2017-08-31T09:07:22.495Z,3.9
2017-08-31T09:08:23.692Z,3.7
2017-08-31T09:09:24.448Z,3.8
2017-08-31T09:09:32.502Z,3.83
2017-08-31T09:10:25.212Z,3.8
2017-08-31T09:11:26.134Z,3.9
2017-08-31T09:12:00.031Z,3.60
2017-08-31T09:12:26.923Z,3.3
2017-08-31T09:13:27.670Z,3.5
2017-08-31T09:14:27.938Z,4.33
2017-08-31T09:14:28.436Z,3.7
2017-08-31T09:15:29.989Z,3.6
2017-08-31T09:16:30.829Z,4.0
2017-08-31T09:16:55.479Z,4.37
2017-08-31T09:17:31.540Z,3.9
2017-08-31T09:18:32.285Z,3.5
2017-08-31T09:19:22.988Z,4.00
2017-08-31T09:19:33.967Z,3.7
2017-08-31T09:20:35.489Z,4.0
2017-08-31T09:21:36.918Z,3.7
2017-08-31T09:21:50.883Z,4.23
2017-08-31T09:22:38.338Z,3.3
2017-08-31T09:23:39.125Z,3.3
2017-08-31T09:24:18.408Z,4.20
2017-08-31T09:24:40.021Z,3.5
2017-08-31T09:25:40.776Z,3.5
2017-08-31T09:26:41.548Z,3.6
2017-08-31T09:26:46.682Z,4.90
2017-08-31T09:27:42.348Z,4.1
2017-08-31T09:28:43.155Z,3.9
2017-08-31T09:29:14.199Z,3.70
2017-08-31T09:29:43.959Z,3.3
2017-08-31T09:30:45.480Z,3.6
2017-08-31T09:31:42.835Z,3.90
2017-08-31T09:31:46.224Z,3.2
2017-08-31T09:32:47.063Z,3.4
2017-08-31T09:33:47.782Z,3.3
2017-08-31T09:34:11.122Z,4.70
2017-08-31T09:34:49.240Z,3.5
2017-08-31T09:35:50.510Z,3.3
2017-08-31T09:36:38.620Z,3.50
2017-08-31T09:36:51.292Z,3.2
2017-08-31T09:37:52.968Z,3.1
2017-08-31T09:38:53.756Z,3.3
2017-08-31T09:39:06.151Z,4.60
2017-08-31T09:39:54.421Z,3.1
2017-08-31T09:40:55.652Z,2.8
2017-08-31T09:41:33.673Z,3.90
2017-08-31T09:41:56.354Z,3.0
2017-08-31T09:42:57.121Z,2.7
2017-08-31T09:43:57.838Z,3.0
2017-08-31T09:44:01.205Z,4.00
2017-08-31T09:44:58.594Z,2.9
2017-08-31T09:45:59.450Z,2.6
2017-08-31T09:46:28.703Z,3.60
2017-08-31T09:47:00.258Z,2.9
2017-08-31T09:48:00.980Z,2.5
2017-08-31T09:48:56.232Z,3.73
2017-08-31T09:49:01.684Z,2.2
2017-08-31T09:50:02.745Z,2.7
2017-08-31T09:51:03.542Z,2.7